Time;durP1;ratioP1;P1;durP2;ratioP2;P2;SDS_P1;SDS_P2;PMS_P1;PMS_P2;Temp;Humidity;BMP_temperature;BMP_pressure;BME280_temperature;BME280_humidity;BME280_pressure;Samples;Min_cycle;Max_cycle;Signal;HPM_P1;HPM_P2
2021/08/13 00:01:31;;;;;;;10.73;8.27;;;;;;;18.64;73.91;99947.78;5011759;28;20041;-69
2021/08/13 00:03:56;;;;;;;8.90;6.32;;;;;;;18.63;73.99;99940.75;5010539;28;20065;-69
2021/08/13 00:06:22;;;;;;;11.10;7.28;;;;;;;18.62;74.22;99932.84;5009131;28;20045;-70
2021/08/13 00:08:47;;;;;;;7.60;5.70;;;;;;;18.64;74.16;99930.91;5010404;28;20041;-69
2021/08/13 00:11:12;;;;;;;9.70;7.32;;;;;;;18.65;74.21;99928.09;5010588;28;20045;-69
2021/08/13 00:13:38;;;;;;;12.13;6.63;;;;;;;18.68;73.88;99927.03;5009327;28;20049;-70
2021/08/13 00:16:03;;;;;;;9.70;7.18;;;;;;;18.70;73.85;99926.88;5009756;28;20038;-70
2021/08/13 00:18:29;;;;;;;16.75;8.77;;;;;;;18.74;73.58;99920.34;5009545;28;20114;-69
2021/08/13 00:20:54;;;;;;;8.35;6.65;;;;;;;18.78;73.80;99928.00;5009737;28;20034;-69
2021/08/13 00:23:19;;;;;;;8.15;6.47;;;;;;;18.80;73.66;99931.41;5008960;28;20107;-69
2021/08/13 00:25:45;;;;;;;10.25;7.25;;;;;;;18.81;73.47;99937.59;5006555;28;20418;-70
2021/08/13 00:28:10;;;;;;;8.80;6.82;;;;;;;18.87;73.41;99934.41;5008756;28;20073;-69
2021/08/13 00:30:36;;;;;;;10.85;7.05;;;;;;;18.91;73.20;99933.19;5008306;28;20370;-69
2021/08/13 00:33:02;;;;;;;11.85;8.15;;;;;;;18.94;73.46;99932.09;5010119;28;20041;-70
2021/08/13 00:35:27;;;;;;;11.80;7.82;;;;;;;18.94;73.42;99932.94;5009370;28;20034;-69
2021/08/13 00:37:53;;;;;;;11.82;7.35;;;;;;;18.99;73.42;99938.75;5008803;28;20050;-69
2021/08/13 00:40:18;;;;;;;10.80;8.73;;;;;;;19.03;72.99;99936.69;5009288;28;20433;-69
2021/08/13 00:42:43;;;;;;;10.60;8.02;;;;;;;19.04;72.81;99939.22;5009811;28;20046;-70
2021/08/13 00:45:10;;;;;;;10.07;8.65;;;;;;;19.04;72.89;99938.38;5009065;28;20037;-69
2021/08/13 00:47:35;;;;;;;9.02;6.93;;;;;;;19.05;73.03;99940.94;5008031;28;20041;-69
2021/08/13 00:50:02;;;;;;;11.55;8.52;;;;;;;19.03;73.19;99936.69;5009321;28;20060;-69
2021/08/13 00:52:27;;;;;;;9.27;6.88;;;;;;;19.00;73.51;99940.47;5008325;28;20434;-69
2021/08/13 00:54:54;;;;;;;12.43;8.40;;;;;;;19.02;73.61;99938.50;5008649;28;20058;-70
2021/08/13 00:57:19;;;;;;;9.20;7.10;;;;;;;19.04;73.52;99935.69;5001430;28;20113;-70
2021/08/13 00:59:45;;;;;;;11.02;7.65;;;;;;;19.04;73.66;99933.03;5007893;28;20117;-70
2021/08/13 01:02:11;;;;;;;10.60;7.13;;;;;;;19.04;73.48;99931.19;4974915;28;20026;-70
2021/08/13 01:04:37;;;;;;;12.88;8.15;;;;;;;19.09;73.35;99933.50;4992939;28;20057;-70
2021/08/13 01:07:03;;;;;;;10.02;6.65;;;;;;;19.13;73.16;99932.28;4992658;28;20130;-70
2021/08/13 01:09:29;;;;;;;8.13;6.30;;;;;;;19.17;73.13;99932.88;4989611;28;20434;-71
2021/08/13 01:12:26;;;;;;;10.52;6.68;;;;;;;19.15;73.17;99938.34;4989223;28;20034;-70
2021/08/13 01:15:19;;;;;;;11.00;7.40;;;;;;;19.14;73.27;99933.13;4989235;28;20101;-70
2021/08/13 01:17:50;;;;;;;26.48;8.32;;;;;;;19.13;73.12;99932.28;4987546;28;20141;-70
2021/08/13 01:20:45;;;;;;;14.15;8.68;;;;;;;19.12;73.24;99940.41;4989419;28;20127;-70
2021/08/13 01:23:21;;;;;;;22.90;8.60;;;;;;;19.12;72.87;99940.41;4988911;28;20039;-70
2021/08/13 01:25:52;;;;;;;19.23;8.38;;;;;;;19.10;73.28;99937.88;4992822;28;20038;-70
2021/08/13 01:28:32;;;;;;;10.52;7.28;;;;;;;19.05;73.53;99929.38;4992174;28;20062;-70
2021/08/13 01:31:00;;;;;;;8.82;6.65;;;;;;;18.96;74.09;99939.00;4992927;28;20030;-70
2021/08/13 01:33:26;;;;;;;12.68;8.27;;;;;;;18.94;73.98;99929.41;4993035;28;20645;-70
2021/08/13 01:35:52;;;;;;;10.43;7.68;;;;;;;18.94;73.92;99943.63;4992947;28;20088;-70
2021/08/13 01:38:22;;;;;;;11.35;8.38;;;;;;;18.92;74.25;99942.88;4991993;28;20113;-70
2021/08/13 01:40:49;;;;;;;10.93;7.80;;;;;;;18.91;74.30;99943.88;4993019;28;20038;-70
2021/08/13 01:43:20;;;;;;;14.55;8.65;;;;;;;18.86;74.43;99940.75;4992865;28;20487;-70
2021/08/13 01:45:46;;;;;;;12.52;7.88;;;;;;;18.79;74.68;99935.03;4992590;28;20130;-70
2021/08/13 01:48:12;;;;;;;10.95;9.38;;;;;;;18.74;74.95;99936.34;4991921;28;20515;-70
2021/08/13 01:50:39;;;;;;;13.10;7.78;;;;;;;18.69;75.25;99928.72;4993190;28;20066;-70
2021/08/13 01:53:06;;;;;;;14.43;9.02;;;;;;;18.72;75.15;99936.47;4990297;28;20038;-70
2021/08/13 01:55:32;;;;;;;12.80;8.95;;;;;;;18.69;75.47;99930.53;4992637;28;20030;-70
2021/08/13 01:57:58;;;;;;;14.25;9.88;;;;;;;18.67;75.34;99938.66;4992098;28;20038;-70
2021/08/13 02:00:24;;;;;;;12.05;7.45;;;;;;;18.65;75.70;99928.09;4992310;28;20494;-70
2021/08/13 02:02:51;;;;;;;11.30;7.38;;;;;;;18.64;75.65;99925.56;4992297;28;20041;-70
2021/08/13 02:05:20;;;;;;;16.92;9.65;;;;;;;18.60;75.68;99924.94;4992351;28;20049;-70
2021/08/13 02:07:47;;;;;;;12.57;9.00;;;;;;;18.56;75.85;99920.84;4991717;28;20035;-70
2021/08/13 02:10:13;;;;;;;10.50;7.65;;;;;;;18.52;76.21;99924.72;4992430;28;20133;-70
2021/08/13 02:12:38;;;;;;;10.80;7.75;;;;;;;18.52;76.38;99934.56;4993027;28;20118;-70
2021/08/13 02:15:05;;;;;;;13.20;8.38;;;;;;;18.50;76.31;99937.34;4992489;28;20087;-70
2021/08/13 02:17:35;;;;;;;12.93;10.00;;;;;;;18.48;76.20;99939.28;4991335;28;20112;-70
2021/08/13 02:20:03;;;;;;;11.48;8.73;;;;;;;18.43;76.30;99937.00;4992418;28;20026;-72
2021/08/13 02:22:29;;;;;;;11.40;8.98;;;;;;;18.39;76.69;99926.69;4992234;28;20034;-70
2021/08/13 02:24:54;;;;;;;10.57;8.45;;;;;;;18.35;76.60;99926.06;4992048;28;20130;-70
2021/08/13 02:27:20;;;;;;;12.90;8.73;;;;;;;18.31;77.09;99924.63;4991208;28;20026;-70
2021/08/13 02:29:46;;;;;;;12.00;8.52;;;;;;;18.22;77.20;99923.53;4992097;28;20030;-69
2021/08/13 02:32:12;;;;;;;11.65;8.23;;;;;;;18.21;77.22;99921.84;4991446;28;20042;-69
2021/08/13 02:34:38;;;;;;;11.55;8.82;;;;;;;18.21;77.30;99929.84;4992351;28;20034;-70
2021/08/13 02:37:09;;;;;;;13.43;9.20;;;;;;;18.15;77.29;99922.31;4990384;28;20034;-70
2021/08/13 02:39:44;;;;;;;11.13;8.25;;;;;;;18.16;77.45;99923.16;4991547;28;20038;-70
2021/08/13 02:42:12;;;;;;;;;;;;;;;18.17;77.44;99925.72;4992411;28;20568;-70
2021/08/13 02:44:41;;;;;;;10.30;7.93;;;;;;;18.16;77.28;99926.69;4992296;28;19914;-70
2021/08/13 02:47:10;;;;;;;10.00;7.70;;;;;;;18.20;77.22;99933.47;4991636;28;20038;-70
2021/08/13 02:49:41;;;;;;;11.98;8.05;;;;;;;18.23;76.83;99935.88;4992426;28;20072;-70
2021/08/13 02:52:08;;;;;;;9.30;7.88;;;;;;;18.27;76.65;99933.84;4992695;28;20034;-70
2021/08/13 02:54:36;;;;;;;14.80;9.95;;;;;;;18.30;76.65;99922.91;4991962;28;20030;-70
2021/08/13 02:57:04;;;;;;;10.10;8.07;;;;;;;18.28;77.08;99930.19;4991194;28;20606;-70
2021/08/13 02:59:32;;;;;;;13.38;8.55;;;;;;;18.26;76.91;99934.78;4994414;28;20042;-70
2021/08/13 03:01:59;;;;;;;13.52;9.20;;;;;;;18.27;76.82;99939.19;4991030;28;20044;-70
2021/08/13 03:04:28;;;;;;;11.52;8.90;;;;;;;18.27;77.04;99936.50;4991173;28;20031;-70
2021/08/13 03:06:55;;;;;;;12.88;8.27;;;;;;;18.26;76.96;99933.94;5005291;28;20461;-70
2021/08/13 03:09:23;;;;;;;13.27;8.75;;;;;;;18.23;77.06;99941.22;5030434;28;20045;-70
2021/08/13 03:11:49;;;;;;;12.88;8.45;;;;;;;18.23;77.04;99943.88;5030344;28;20041;-70
2021/08/13 03:14:15;;;;;;;12.98;9.77;;;;;;;18.25;77.12;99935.78;5030382;28;20037;-70
2021/08/13 03:16:43;;;;;;;13.07;9.30;;;;;;;18.23;77.29;99937.72;5029581;28;20087;-69
2021/08/13 03:19:09;;;;;;;14.45;10.30;;;;;;;18.22;77.25;99930.69;5030641;28;20046;-70
2021/08/13 03:21:35;;;;;;;11.35;9.13;;;;;;;18.13;77.48;99931.41;5030247;28;20056;-70
2021/08/13 03:24:01;;;;;;;16.00;8.63;;;;;;;18.08;77.61;99933.59;5030446;28;20116;-70
2021/08/13 03:26:27;;;;;;;10.70;8.77;;;;;;;17.99;77.60;99930.69;5029777;28;20718;-69
2021/08/13 03:28:53;;;;;;;13.23;10.50;;;;;;;18.00;78.03;99934.19;5030039;28;20062;-70
2021/08/13 03:31:38;;;;;;;19.35;11.48;;;;;;;17.97;77.76;99940.63;5030336;28;20374;-69
2021/08/13 03:34:06;;;;;;;14.57;9.82;;;;;;;17.94;77.79;99934.66;5030194;28;20033;-70
2021/08/13 03:36:33;;;;;;;16.58;10.65;;;;;;;17.94;78.05;99938.19;5029460;28;20033;-70
2021/08/13 03:38:59;;;;;;;15.27;9.82;;;;;;;17.86;78.66;99942.41;5029473;28;20033;-70
2021/08/13 03:41:24;;;;;;;17.50;10.70;;;;;;;17.81;78.68;99934.75;5029670;28;20375;-69
2021/08/13 03:43:50;;;;;;;12.10;9.23;;;;;;;17.83;78.71;99939.97;5029731;28;20037;-69
2021/08/13 03:46:15;;;;;;;14.75;10.32;;;;;;;17.80;78.46;99935.75;5030083;28;20090;-69
2021/08/13 03:48:41;;;;;;;17.85;10.40;;;;;;;17.79;78.29;99933.97;5028986;28;20029;-70
2021/08/13 03:51:06;;;;;;;12.48;8.98;;;;;;;17.68;78.65;99936.66;5030426;28;20040;-70
2021/08/13 03:53:31;;;;;;;15.05;8.25;;;;;;;17.65;78.82;99937.72;5029858;28;20478;-69
2021/08/13 03:55:57;;;;;;;12.02;9.32;;;;;;;17.64;78.49;99951.16;5030010;28;20059;-69
2021/08/13 03:58:22;;;;;;;12.25;8.70;;;;;;;17.63;78.55;99947.66;5029245;28;20433;-70
2021/08/13 04:00:47;;;;;;;17.65;10.20;;;;;;;17.63;79.12;99954.81;5029599;28;20088;-69
2021/08/13 04:03:13;;;;;;;13.82;9.13;;;;;;;17.55;79.32;99953.56;5029573;28;20037;-69
2021/08/13 04:05:38;;;;;;;11.40;8.57;;;;;;;17.56;78.84;99954.41;5029774;28;20033;-70
2021/08/13 04:08:04;;;;;;;12.00;8.48;;;;;;;17.53;79.32;99954.66;5028666;28;20064;-70
2021/08/13 04:10:29;;;;;;;10.52;8.63;;;;;;;17.57;78.60;99956.97;5029435;28;20611;-69
2021/08/13 04:12:54;;;;;;;9.68;7.32;;;;;;;17.54;78.85;99962.50;5028876;28;20557;-70
2021/08/13 04:15:20;;;;;;;12.95;8.57;;;;;;;17.51;78.83;99961.91;5029363;28;20061;-71
2021/08/13 04:17:46;;;;;;;11.80;8.80;;;;;;;17.49;79.25;99959.34;5027932;28;20116;-70
2021/08/13 04:20:12;;;;;;;13.50;8.15;;;;;;;17.48;78.92;99971.00;5028157;28;20029;-68
2021/08/13 04:22:37;;;;;;;12.57;8.93;;;;;;;17.48;79.10;99967.47;5029348;28;20394;-69
2021/08/13 04:25:03;;;;;;;11.13;8.13;;;;;;;17.54;79.03;99967.00;5029527;28;20029;-69
2021/08/13 04:27:28;;;;;;;10.85;8.25;;;;;;;17.55;78.79;99969.56;5028831;28;20037;-69
2021/08/13 04:29:54;;;;;;;14.98;8.52;;;;;;;17.60;78.55;99963.91;5029206;28;20413;-70
2021/08/13 04:32:19;;;;;;;11.85;8.20;;;;;;;17.65;78.43;99963.53;5027836;28;20628;-69
2021/08/13 04:34:44;;;;;;;16.17;9.07;;;;;;;17.67;78.54;99962.47;5029375;28;20397;-69
2021/08/13 04:37:10;;;;;;;12.88;9.02;;;;;;;17.70;78.53;99966.72;5027954;28;20033;-69
2021/08/13 04:39:35;;;;;;;12.98;8.15;;;;;;;17.74;77.89;99963.66;5029530;28;20485;-70
2021/08/13 04:42:01;;;;;;;11.80;8.45;;;;;;;17.80;78.06;99965.91;5028625;28;20044;-69
2021/08/13 04:44:26;;;;;;;9.43;7.63;;;;;;;17.88;78.19;99960.00;5029012;28;20029;-70
2021/08/13 04:46:51;;;;;;;9.05;7.13;;;;;;;17.97;77.55;99958.44;5028305;28;20037;-69
2021/08/13 04:49:17;;;;;;;11.05;8.35;;;;;;;18.01;77.61;99960.72;5023384;28;20560;-70
2021/08/13 04:51:42;;;;;;;12.00;9.00;;;;;;;18.07;77.55;99959.44;5009371;28;20571;-69
2021/08/13 04:54:08;;;;;;;11.40;8.48;;;;;;;18.13;77.32;99974.09;5009636;28;20457;-69
2021/08/13 04:56:33;;;;;;;11.43;7.65;;;;;;;18.20;77.12;99969.97;5008176;28;20393;-69
2021/08/13 04:58:59;;;;;;;13.68;8.57;;;;;;;18.28;76.84;99972.06;5008519;28;20048;-69
2021/08/13 05:01:24;;;;;;;15.35;8.35;;;;;;;18.32;76.59;99969.03;5008441;28;20117;-69
2021/08/13 05:03:49;;;;;;;11.93;8.13;;;;;;;18.37;76.34;99971.34;5007642;28;20062;-69
2021/08/13 05:06:18;;;;;;;11.07;8.15;;;;;;;18.45;76.24;99980.41;5005451;28;20640;-69
2021/08/13 05:08:44;;;;;;;10.18;8.02;;;;;;;18.54;75.93;99989.53;5008490;28;20033;-69
2021/08/13 05:11:10;;;;;;;11.82;8.85;;;;;;;18.62;75.84;99991.59;5008752;28;20037;-69
2021/08/13 05:13:35;;;;;;;12.90;9.27;;;;;;;18.66;75.68;99988.56;5008909;28;20099;-70
2021/08/13 05:16:00;;;;;;;11.65;8.85;;;;;;;18.73;75.53;99985.38;5008695;28;20034;-69
2021/08/13 05:18:25;;;;;;;15.00;10.45;;;;;;;18.70;75.78;99973.13;5007963;28;20033;-70
2021/08/13 05:20:51;;;;;;;11.82;9.07;;;;;;;18.79;75.83;99995.63;5008674;28;20041;-70
2021/08/13 05:23:16;;;;;;;9.43;7.85;;;;;;;18.87;75.55;99995.84;5008325;28;20117;-70
2021/08/13 05:25:41;;;;;;;12.32;8.00;;;;;;;18.94;75.32;100004.22;5008722;28;20033;-70
2021/08/13 05:28:07;;;;;;;12.95;10.27;;;;;;;19.01;75.15;100003.59;5008384;28;20092;-70
2021/08/13 05:30:32;;;;;;;14.27;9.90;;;;;;;19.06;75.21;100001.41;5008327;28;20048;-70
2021/08/13 05:32:58;;;;;;;11.23;9.55;;;;;;;19.13;75.08;100000.94;5008848;28;20030;-70
2021/08/13 05:35:23;;;;;;;18.30;10.40;;;;;;;19.19;74.84;100003.91;5008214;28;20493;-70
2021/08/13 05:37:48;;;;;;;15.88;11.82;;;;;;;19.23;74.93;100016.06;5007795;28;20065;-70
2021/08/13 05:40:14;;;;;;;13.15;10.40;;;;;;;19.27;74.62;100022.00;5008432;28;20034;-70
2021/08/13 05:42:39;;;;;;;17.58;12.60;;;;;;;19.29;74.57;100026.25;5000395;28;20080;-70
2021/08/13 05:45:06;;;;;;;13.88;11.45;;;;;;;19.33;74.36;100029.53;4990019;28;20089;-69
2021/08/13 05:47:33;;;;;;;16.60;12.18;;;;;;;19.36;74.29;100034.63;5007724;28;20049;-70
2021/08/13 05:49:59;;;;;;;17.80;12.95;;;;;;;19.36;74.42;100039.13;5006816;28;20573;-70
2021/08/13 05:52:24;;;;;;;15.15;11.57;;;;;;;19.38;74.31;100042.53;5006454;28;20030;-70
2021/08/13 05:54:49;;;;;;;18.60;12.27;;;;;;;19.40;73.99;100045.94;5008369;28;20034;-70
2021/08/13 05:57:15;;;;;;;16.38;12.90;;;;;;;19.43;73.96;100059.03;5008107;28;20038;-70
2021/08/13 05:59:40;;;;;;;15.32;12.23;;;;;;;19.47;73.86;100056.00;5008897;28;20482;-70
2021/08/13 06:02:06;;;;;;;18.50;14.60;;;;;;;19.52;73.72;100058.31;5008778;28;20030;-70
2021/08/13 06:04:31;;;;;;;17.90;12.63;;;;;;;19.60;73.48;100060.34;5008045;28;20081;-69
2021/08/13 06:06:56;;;;;;;20.50;14.90;;;;;;;19.68;73.18;100072.13;5007818;28;20045;-69
2021/08/13 06:09:21;;;;;;;27.55;16.85;;;;;;;19.76;72.91;100068.81;5008306;28;20066;-70
2021/08/13 06:11:47;;;;;;;23.02;17.08;;;;;;;19.80;72.51;100080.97;5010206;28;20073;-70
2021/08/13 06:14:12;;;;;;;23.23;16.02;;;;;;;19.86;72.35;100082.25;5011799;28;20125;-70
2021/08/13 06:16:38;;;;;;;29.25;18.70;;;;;;;19.90;72.52;100092.59;5005506;28;20038;-70
2021/08/13 06:19:03;;;;;;;26.98;20.90;;;;;;;19.96;72.06;100091.25;5023420;28;20054;-70
2021/08/13 06:21:30;;;;;;;47.15;26.02;;;;;;;19.94;72.25;100087.84;5011513;28;20034;-69
2021/08/13 06:23:55;;;;;;;34.55;26.55;;;;;;;19.89;72.44;100096.25;5011611;28;20034;-69
2021/08/13 06:26:20;;;;;;;31.67;24.63;;;;;;;19.85;72.59;100102.81;5010856;28;20030;-70
2021/08/13 06:28:46;;;;;;;40.55;33.45;;;;;;;19.80;72.64;100112.22;5008777;28;20041;-68
2021/08/13 06:31:12;;;;;;;54.05;42.20;;;;;;;19.72;72.57;100099.47;5011435;28;20061;-68
2021/08/13 06:33:37;;;;;;;53.30;44.28;;;;;;;19.65;72.83;100099.09;5011992;28;20107;-70
2021/08/13 06:36:03;;;;;;;52.17;40.70;;;;;;;19.60;72.90;100106.66;5011509;28;20116;-70
2021/08/13 06:38:28;;;;;;;60.95;45.03;;;;;;;19.56;73.34;100094.50;5010423;28;20044;-68
2021/08/13 06:40:54;;;;;;;58.25;43.33;;;;;;;19.56;73.54;100099.00;5011801;28;20038;-69
2021/08/13 06:43:19;;;;;;;52.55;42.97;;;;;;;19.61;73.36;100102.16;5010356;28;20402;-70
2021/08/13 06:45:45;;;;;;;53.45;43.58;;;;;;;19.65;73.23;100098.25;5008853;28;20034;-70
2021/08/13 06:48:11;;;;;;;53.78;42.30;;;;;;;19.66;73.01;100094.59;5010517;28;20521;-70
2021/08/13 06:50:36;;;;;;;50.78;40.00;;;;;;;19.68;72.93;100112.25;5003926;28;20027;-71
2021/08/13 06:53:02;;;;;;;54.17;40.85;;;;;;;19.73;73.09;100098.50;4989344;28;20525;-70
2021/08/13 06:55:27;;;;;;;55.70;44.13;;;;;;;19.78;72.41;100106.97;4987696;28;20034;-70
2021/08/13 06:57:53;;;;;;;55.95;40.25;;;;;;;19.92;71.84;100105.84;5003482;28;20038;-70
2021/08/13 07:00:18;;;;;;;50.58;38.08;;;;;;;20.01;71.49;100114.91;5010978;28;20072;-70
2021/08/13 07:02:47;;;;;;;51.25;38.80;;;;;;;20.14;71.16;100105.75;5010191;28;20038;-69
2021/08/13 07:05:14;;;;;;;46.38;35.17;;;;;;;20.19;69.61;100110.72;5011244;28;20560;-69
2021/08/13 07:07:40;;;;;;;38.65;31.00;;;;;;;20.32;69.69;100118.56;5009330;28;20038;-69
2021/08/13 07:10:08;;;;;;;38.63;30.52;;;;;;;20.48;68.88;100110.09;5010497;28;20041;-70
2021/08/13 07:12:34;;;;;;;43.90;28.35;;;;;;;20.58;68.38;100113.69;5010575;28;20524;-70
2021/08/13 07:14:59;;;;;;;36.58;27.40;;;;;;;20.66;67.65;100113.88;5008597;28;20038;-70
2021/08/13 07:17:25;;;;;;;34.35;28.52;;;;;;;20.71;67.31;100122.38;5009738;28;20681;-70
2021/08/13 07:19:50;;;;;;;38.80;26.88;;;;;;;20.72;66.94;100124.09;5010794;28;20041;-70
2021/08/13 07:22:15;;;;;;;38.33;25.58;;;;;;;20.75;66.49;100125.66;5010226;28;20601;-71
2021/08/13 07:24:41;;;;;;;37.75;26.67;;;;;;;20.74;66.05;100123.94;5011657;28;20042;-71
2021/08/13 07:27:06;;;;;;;42.05;24.85;;;;;;;20.70;66.21;100128.72;5008651;28;20076;-70
2021/08/13 07:29:31;;;;;;;38.80;23.05;;;;;;;20.74;66.15;100126.63;5012527;28;20038;-69
2021/08/13 07:31:57;;;;;;;33.53;23.73;;;;;;;20.78;65.85;100126.22;5011999;28;20124;-69
2021/08/13 07:34:22;;;;;;;34.92;23.30;;;;;;;20.88;66.04;100145.03;5008973;28;20029;-69
2021/08/13 07:36:48;;;;;;;31.73;22.70;;;;;;;21.04;65.89;100143.69;5009473;28;20041;-69
2021/08/13 07:39:13;;;;;;;31.75;21.52;;;;;;;21.13;65.82;100145.56;5010130;28;20033;-70
2021/08/13 07:41:39;;;;;;;34.95;23.63;;;;;;;21.16;65.60;100140.78;5010232;28;20486;-69
2021/08/13 07:44:04;;;;;;;29.10;23.25;;;;;;;21.14;65.57;100136.53;5010462;28;20038;-69
2021/08/13 07:46:29;;;;;;;27.92;20.40;;;;;;;21.20;65.60;100149.41;5009690;28;20053;-69
2021/08/13 07:48:55;;;;;;;27.13;20.80;;;;;;;21.22;65.06;100142.94;5007590;28;20074;-70
2021/08/13 07:51:20;;;;;;;30.58;20.73;;;;;;;21.30;64.55;100149.47;5010655;28;20080;-70
2021/08/13 07:53:45;;;;;;;31.33;19.70;;;;;;;21.41;64.05;100144.88;5010316;28;20430;-71
2021/08/13 07:56:11;;;;;;;29.23;20.33;;;;;;;21.56;63.79;100148.03;5010500;28;20149;-69
2021/08/13 07:58:36;;;;;;;25.17;19.42;;;;;;;21.68;63.86;100140.69;5007639;28;20037;-69
2021/08/13 08:01:02;;;;;;;24.80;19.35;;;;;;;21.77;63.00;100144.38;5006264;28;20037;-69
2021/08/13 08:03:27;;;;;;;25.63;20.10;;;;;;;21.81;62.98;100148.50;5008624;28;20030;-70
2021/08/13 08:05:53;;;;;;;24.92;16.90;;;;;;;21.89;61.92;100147.78;5009161;28;20034;-70
2021/08/13 08:08:18;;;;;;;14.95;12.00;;;;;;;21.95;60.29;100152.59;5008969;28;20038;-70
2021/08/13 08:10:46;;;;;;;18.25;12.25;;;;;;;22.03;59.66;100156.28;5010407;28;20437;-70
2021/08/13 08:13:13;;;;;;;14.77;9.43;;;;;;;22.15;58.69;100164.19;5029839;28;20049;-70
2021/08/13 08:15:38;;;;;;;14.32;9.23;;;;;;;22.29;57.90;100163.81;5029745;28;20033;-69
2021/08/13 08:18:04;;;;;;;10.02;8.30;;;;;;;22.44;57.15;100172.28;5028856;28;20363;-70
2021/08/13 08:20:29;;;;;;;14.23;8.82;;;;;;;22.58;56.21;100179.06;5029767;28;20029;-70
2021/08/13 08:23:04;;;;;;;10.13;6.70;;;;;;;22.54;55.30;100181.19;5029484;28;20057;-70
2021/08/13 08:25:29;;;;;;;12.25;6.50;;;;;;;22.55;55.17;100182.91;5029191;28;20025;-70
2021/08/13 08:27:55;;;;;;;8.38;6.40;;;;;;;22.51;55.15;100189.53;5028707;28;20056;-70
2021/08/13 08:30:21;;;;;;;7.22;5.65;;;;;;;22.58;55.55;100192.50;5029449;28;20095;-70
2021/08/13 08:32:46;;;;;;;11.48;6.93;;;;;;;22.68;55.53;100194.19;5029535;28;20065;-70
2021/08/13 08:35:11;;;;;;;7.78;6.20;;;;;;;22.78;55.60;100187.94;5029180;28;20033;-70
2021/08/13 08:37:58;;;;;;;6.80;5.55;;;;;;;22.68;55.34;100196.03;5028152;28;20061;-70
2021/08/13 08:40:27;;;;;;;8.88;6.40;;;;;;;22.73;55.73;100186.53;5027749;28;20043;-70
2021/08/13 08:42:58;;;;;;;10.40;7.10;;;;;;;22.84;55.89;100190.91;5028923;28;20043;-70
2021/08/13 08:45:28;;;;;;;10.50;6.78;;;;;;;22.91;55.39;100194.72;5029092;28;20033;-69
2021/08/13 08:47:57;;;;;;;8.43;5.40;;;;;;;23.09;54.67;100189.47;5028234;28;20525;-70
2021/08/13 08:50:23;;;;;;;10.68;6.50;;;;;;;23.12;53.63;100189.16;5028589;28;20091;-69
2021/08/13 08:52:49;;;;;;;9.85;5.82;;;;;;;23.18;53.87;100194.94;5028534;28;20041;-71
2021/08/13 08:55:15;;;;;;;9.68;6.20;;;;;;;23.22;53.20;100205.28;5028882;28;20034;-70
2021/08/13 08:57:42;;;;;;;9.90;6.18;;;;;;;23.35;52.62;100204.94;5028497;28;20036;-70
2021/08/13 09:00:08;;;;;;;7.80;5.32;;;;;;;23.46;52.22;100206.59;5027652;28;20033;-70
2021/08/13 09:02:34;;;;;;;7.03;4.97;;;;;;;23.57;51.82;100209.94;5029104;28;20177;-70
2021/08/13 09:05:00;;;;;;;8.23;5.32;;;;;;;23.81;50.63;100208.56;5025676;28;20132;-70
2021/08/13 09:07:26;;;;;;;5.97;4.53;;;;;;;23.95;50.00;100201.84;5008427;28;20096;-70
2021/08/13 09:09:52;;;;;;;6.70;4.72;;;;;;;24.04;50.52;100210.84;5010219;28;20088;-71
2021/08/13 09:12:18;;;;;;;7.97;4.32;;;;;;;24.08;49.82;100205.00;5009996;28;20034;-69
2021/08/13 09:14:43;;;;;;;5.70;4.55;;;;;;;24.01;49.13;100206.59;5010833;28;20049;-70
2021/08/13 09:17:09;;;;;;;8.52;4.88;;;;;;;24.04;49.87;100208.16;5010032;28;20057;-70
2021/08/13 09:19:40;;;;;;;10.55;4.78;;;;;;;24.13;49.65;100208.06;5014168;28;20056;-70
2021/08/13 09:22:11;;;;;;;6.05;4.07;;;;;;;24.29;49.39;100204.69;5009952;28;20057;-70
2021/08/13 09:24:37;;;;;;;9.23;5.05;;;;;;;24.34;49.43;100207.78;5009839;28;20038;-70
2021/08/13 09:27:23;;;;;;;6.28;5.25;;;;;;;24.45;49.35;100212.09;5009112;28;20042;-69
2021/08/13 09:30:14;;;;;;;5.60;3.97;;;;;;;24.81;48.43;100212.94;5008986;28;20042;-69
2021/08/13 09:32:54;;;;;;;5.65;4.50;;;;;;;25.24;47.38;100204.97;5008836;28;20037;-70
2021/08/13 09:35:29;;;;;;;7.18;4.65;;;;;;;26.02;45.29;100203.97;5007303;28;20030;-69
2021/08/13 09:37:54;;;;;;;7.07;4.60;;;;;;;26.10;45.52;100204.81;5006876;28;20103;-70
2021/08/13 09:40:20;;;;;;;7.63;5.20;;;;;;;26.15;45.49;100217.84;5009174;28;20217;-69
2021/08/13 09:42:47;;;;;;;8.52;4.75;;;;;;;26.29;44.47;100206.38;5009432;28;20030;-69
2021/08/13 09:45:12;;;;;;;6.80;4.75;;;;;;;26.87;43.80;100209.09;5010189;28;20418;-70
2021/08/13 09:47:43;;;;;;;8.27;5.07;;;;;;;27.23;42.43;100215.00;5012369;28;20037;-70
2021/08/13 09:50:10;;;;;;;9.25;5.63;;;;;;;27.39;42.38;100212.25;5013067;28;20030;-70
2021/08/13 09:52:36;;;;;;;13.60;4.97;;;;;;;27.22;42.78;100216.00;5012564;28;20224;-70
2021/08/13 09:55:14;;;;;;;6.60;4.13;;;;;;;27.05;42.77;100208.91;5011957;28;20144;-70
2021/08/13 09:57:44;;;;;;;8.50;4.07;;;;;;;26.72;43.21;100203.53;5011867;28;20418;-70
2021/08/13 10:00:11;;;;;;;7.85;4.70;;;;;;;26.82;42.83;100201.50;5012049;28;20034;-70
2021/08/13 10:02:40;;;;;;;7.35;4.85;;;;;;;26.70;42.59;100200.16;5012128;28;20117;-69
2021/08/13 10:05:20;;;;;;;6.50;4.43;;;;;;;26.93;42.59;100206.56;5011713;28;20038;-70
2021/08/13 10:07:59;;;;;;;8.95;4.50;;;;;;;27.25;41.79;100199.44;5011103;28;20050;-70
2021/08/13 10:10:27;;;;;;;12.30;4.75;;;;;;;27.61;41.16;100201.66;5012471;28;20036;-70
2021/08/13 10:12:52;;;;;;;10.48;4.18;;;;;;;27.66;41.49;100207.38;5012192;28;20037;-71
2021/08/13 10:15:29;;;;;;;9.18;4.75;;;;;;;27.41;41.49;100203.94;5012720;28;20107;-70
2021/08/13 10:17:56;;;;;;;7.25;4.90;;;;;;;27.08;42.77;100212.13;5011043;28;20688;-69
2021/08/13 10:20:26;;;;;;;9.60;4.57;;;;;;;26.70;43.45;100205.56;5011566;28;20125;-71
2021/08/13 10:22:52;;;;;;;7.28;4.35;;;;;;;26.37;44.34;100221.75;5011674;28;20038;-70
2021/08/13 10:25:21;;;;;;;6.57;4.35;;;;;;;26.46;44.52;100218.06;5011885;28;20500;-70
2021/08/13 10:27:47;;;;;;;8.40;4.78;;;;;;;26.37;44.55;100210.09;5011034;28;20486;-70
2021/08/13 10:30:15;;;;;;;6.13;4.50;;;;;;;26.65;44.50;100205.22;5012149;28;20033;-70
2021/08/13 10:32:42;;;;;;;8.85;4.15;;;;;;;26.45;44.52;100196.59;5009879;28;20034;-71
2021/08/13 10:35:08;;;;;;;10.75;4.15;;;;;;;26.46;44.27;100188.31;5012411;28;20125;-70
2021/08/13 10:37:35;;;;;;;5.80;3.90;;;;;;;26.92;43.83;100194.03;5011237;28;20060;-70
2021/08/13 10:40:00;;;;;;;10.05;5.10;;;;;;;26.79;43.38;100201.00;5011429;28;20091;-69
2021/08/13 10:42:27;;;;;;;6.10;4.28;;;;;;;26.85;43.41;100194.91;5013499;28;20034;-69
2021/08/13 10:45:03;;;;;;;5.60;4.38;;;;;;;26.83;43.75;100192.38;5013032;28;20502;-70
2021/08/13 10:47:34;;;;;;;4.38;3.33;;;;;;;26.62;44.24;100201.00;5010086;28;20040;-70
2021/08/13 10:50:01;;;;;;;4.55;3.80;;;;;;;26.49;43.98;100192.53;5010884;28;20103;-70
2021/08/13 10:52:38;;;;;;;4.53;3.58;;;;;;;26.49;43.85;100203.34;5007843;28;20033;-70
2021/08/13 10:55:05;;;;;;;4.88;3.50;;;;;;;27.05;42.90;100196.25;5011876;28;20042;-71
2021/08/13 10:57:49;;;;;;;5.97;3.30;;;;;;;26.33;44.75;100199.59;5009774;28;20034;-70
2021/08/13 11:00:20;;;;;;;6.07;3.22;;;;;;;26.35;44.70;100196.75;5011762;28;20042;-70
2021/08/13 11:03:13;;;;;;;4.53;2.88;;;;;;;26.38;44.61;100200.97;5011461;28;20022;-70
2021/08/13 11:05:49;;;;;;;3.83;2.70;;;;;;;26.19;45.51;100189.47;5010664;28;20141;-70
2021/08/13 11:08:15;;;;;;;3.13;2.40;;;;;;;26.09;44.95;100199.59;5010715;28;20433;-70
2021/08/13 11:10:40;;;;;;;6.18;3.25;;;;;;;26.24;44.98;100200.63;5009499;28;20030;-70
2021/08/13 11:13:19;;;;;;;3.28;2.35;;;;;;;26.29;44.60;100192.88;5011222;28;20058;-70
2021/08/13 11:15:46;;;;;;;9.23;3.53;;;;;;;26.44;44.87;100195.75;5010324;28;20493;-70
2021/08/13 11:18:33;;;;;;;6.55;3.28;;;;;;;26.24;45.62;100187.13;5008649;28;20079;-70
2021/08/13 11:21:01;;;;;;;50.17;7.13;;;;;;;26.09;46.09;100194.19;5010760;28;20490;-70
2021/08/13 11:23:27;;;;;;;9.93;4.00;;;;;;;25.90;46.35;100188.06;5010702;28;20041;-69